Latest Weather Observations for Smithton

IDT60801

Issued at 8:51 am EDT Wednesday 23 October 2019 (issued every 10 minutes, with the page automatically refreshed every 10 minutes)

About weather observations | Map of weather stations | Latest weather observations for TAS | Other Formats
Station Details ID: 091292 Name: SMITHTON AERODROME Lat: -40.83 Lon: 145.08 Height: 7.5 m
Data from the previous 72 hours. | See also: Recent months at Smithton
Date/Time
EDT
Temp
°C
App
Temp
°C
Dew
Point
°C
Rel
Hum
%
Delta-T
°C
Wind Press
QNH
hPa
Press
MSL
hPa
Rain since
9am
mm
Dir  Spd
km/h
Gust
km/h
Spd
kts
Gust
kts
23/08:30am 9.6 8.1 9.0 96 0.3 W 7 13 4 7 1021.2 1021.2 0.0
23/08:00am 9.3 8.3 9.0 98 0.1 NNE 4 9 2 5 1020.8 1020.8 0.0
23/07:30am 8.8 7.2 8.7 99 0.0 NW 7 13 4 7 1020.5 1020.5 0.0
23/07:00am 8.2 6.4 7.9 98 0.1 WNW 7 13 4 7 1020.6 1020.6 0.0
23/06:30am 7.9 6.0 7.6 98 0.1 W 7 13 4 7 1020.4 1020.4 0.0
23/06:00am 7.8 6.1 7.5 98 0.1 SW 6 11 3 6 1020.6 1020.6 0.0
23/05:30am 7.9 6.0 7.6 98 0.1 WNW 7 13 4 7 1020.3 1020.3 0.0
23/05:00am 7.8 5.5 7.5 98 0.1 WNW 9 13 5 7 1020.6 1020.6 0.0
23/04:30am 8.1 5.9 7.8 98 0.1 SW 9 11 5 6 1020.7 1020.7 0.0
23/04:00am 8.2 6.0 7.9 98 0.1 WSW 9 13 5 7 1020.7 1020.7 0.0
23/03:30am 8.3 5.8 8.0 98 0.1 WSW 11 15 6 8 1021.0 1021.0 0.0
23/03:00am 8.3 5.8 8.2 99 0.0 WSW 11 15 6 8 1021.1 1021.1 0.0
23/02:30am 8.0 5.4 7.9 99 0.0 SW 11 17 6 9 1021.6 1021.6 0.0
23/02:00am 5.9 2.9 5.8 99 0.0 WSW 11 13 6 7 1022.1 1022.1 0.0
23/01:30am 4.6 1.2 4.2 97 0.2 WSW 11 11 6 6 1022.4 1022.4 0.0
23/01:00am 5.3 2.8 4.7 96 0.3 W 7 9 4 5 1022.4 1022.4 0.0
23/12:30am 6.2 3.5 5.8 97 0.2 SW 9 11 5 6 1022.8 1022.8 0.0
23/12:00am 6.2 4.1 5.8 97 0.2 W 6 9 3 5 1022.6 1022.6 0.0
 
Date/Time
EDT
Temp
°C
App
Temp
°C
Dew
Point
°C
Rel
Hum
%
Delta-T
°C
Wind Press
QNH
hPa
Press
MSL
hPa
Rain since
9am
mm
Dir  Spd
km/h
Gust
km/h
Spd
kts
Gust
kts
22/11:30pm 6.5 3.1 6.1 97 0.2 WSW 13 13 7 7 1023.0 1023.0 0.0
22/11:00pm 6.8 4.8 6.2 96 0.3 WSW 6 7 3 4 1023.0 1023.0 0.0
22/10:30pm 6.7 4.1 6.0 95 0.3 W 9 9 5 5 1023.1 1023.1 0.0
22/10:00pm 7.6 5.2 6.9 95 0.3 WSW 9 11 5 6 1023.1 1023.1 0.0
22/09:30pm 7.7 5.2 6.6 93 0.5 SW 9 11 5 6 1023.2 1023.2 0.0
22/09:00pm 8.3 5.9 6.9 91 0.6 SW 9 11 5 6 1023.3 1023.3 0.0
22/08:30pm 9.0 7.1 7.6 91 0.7 W 7 9 4 5 1022.9 1022.9 0.0
22/08:00pm 10.3 8.2 8.1 86 1.1 WSW 9 13 5 7 1022.8 1022.8 0.0
22/07:30pm 11.5 8.4 8.7 83 1.4 W 15 17 8 9 1022.9 1022.9 0.0
22/07:00pm 13.4 10.1 9.6 78 1.9 WNW 17 20 9 11 1022.6 1022.6 0.0
22/06:30pm 15.3 11.9 10.5 73 2.5 WNW 19 24 10 13 1022.5 1022.5 0.0
22/06:00pm 15.9 12.7 11.3 74 2.5 NW 19 26 10 14 1022.5 1022.5 0.0
22/05:30pm 16.7 13.5 11.2 70 3.0 NW 19 24 10 13 1022.3 1022.3 0.0
22/05:00pm 17.4 15.1 11.9 70 3.0 NE 15 20 8 11 1022.3 1022.3 0.0
22/04:30pm 16.5 13.7 11.4 72 2.8 NNE 17 20 9 11 1022.5 1022.5 0.0
22/04:00pm 16.3 13.0 10.8 70 2.9 NE 19 22 10 12 1022.7 1022.7 0.0
22/03:30pm 16.7 13.5 11.2 70 3.0 NE 19 22 10 12 1023.3 1023.3 0.0
22/03:00pm 17.1 13.9 11.4 69 3.1 NE 19 22 10 12 1023.6 1023.6 0.0
22/02:30pm 17.1 13.5 10.7 66 3.4 NE 20 26 11 14 1023.8 1023.8 0.0
22/02:00pm 18.2 15.6 12.0 67 3.4 N 17 24 9 13 1023.9 1023.9 0.0
22/01:30pm 18.8 16.4 12.8 68 3.4 NW 17 26 9 14 1023.9 1023.9 0.0
22/01:00pm 18.9 17.4 11.9 64 3.8 WNW 11 17 6 9 1024.5 1024.5 0.0
22/12:30pm 17.3 16.1 10.2 63 3.8 WNW 7 11 4 6 1024.7 1024.7 0.0
22/12:00pm 17.1 15.3 10.7 66 3.4 WNW 11 15 6 8 1024.9 1024.9 0.0
22/11:30am 15.9 14.5 9.6 66 3.3 WSW 7 13 4 7 1025.0 1025.0 0.0
22/11:00am 14.9 12.9 8.8 67 3.1 WSW 9 17 5 9 1025.3 1025.3 0.0
22/10:30am 14.0 10.8 8.6 70 2.7 SW 15 24 8 13 1025.3 1025.3 0.0
22/10:00am 13.4 9.7 8.0 70 2.7 SSW 17 22 9 12 1025.4 1025.4 0.0
22/09:30am 12.6 9.0 8.3 75 2.1 SW 17 20 9 11 1025.3 1025.3 0.0
22/09:00am 11.8 7.5 7.9 77 1.9 SW 20 24 11 13 1025.3 1025.3 0.2
22/08:30am 10.9 6.1 7.4 79 1.7 SW 22 30 12 16 1025.3 1025.3 0.2
22/08:00am 10.2 5.5 7.8 85 1.1 SW 22 32 12 17 1025.2 1025.2 0.2
22/07:30am 9.3 5.1 7.6 89 0.8 SW 19 24 10 13 1025.1 1025.1 0.2
22/07:00am 8.3 4.4 7.1 92 0.6 SW 17 20 9 11 1024.8 1024.8 0.2
22/06:30am 7.0 3.2 5.9 93 0.5 WSW 15 15 8 8 1024.7 1024.7 0.2
22/06:00am 7.5 3.8 6.1 91 0.6 WSW 15 19 8 10 1024.5 1024.5 0.2
22/05:30am 8.6 4.6 6.7 88 0.9 SW 17 19 9 10 1024.3 1024.3 0.2
22/05:00am 9.4 4.1 6.8 84 1.2 SW 24 32 13 17 1024.2 1024.2 0.2
22/04:30am 9.5 4.5 6.6 82 1.4 SW 22 30 12 16 1024.4 1024.4 0.2
22/04:00am 9.4 4.5 7.0 85 1.1 SW 22 32 12 17 1024.5 1024.5 0.2
22/03:30am 9.5 5.3 7.4 87 1.0 SSW 19 26 10 14 1024.5 1024.5 0.2
22/03:00am 9.4 5.0 7.5 88 0.9 SW 20 32 11 17 1024.5 1024.5 0.2
22/02:30am 9.3 5.1 7.6 89 0.8 SW 19 22 10 12 1024.6 1024.6 0.2
22/02:00am 9.5 5.1 7.4 87 1.0 SW 20 28 11 15 1024.8 1024.8 0.2
22/01:30am 9.4 5.3 7.7 89 0.8 SW 19 24 10 13 1025.2 1025.2 0.2
22/01:00am 9.7 5.1 8.0 89 0.8 SW 22 32 12 17 1025.3 1025.3 0.2
22/12:30am 9.5 5.3 8.1 91 0.7 SW 20 26 11 14 1025.5 1025.5 0.2
22/12:00am 9.2 5.2 8.1 93 0.5 SW 19 24 10 13 1025.6 1025.6 0.2
 
Date/Time
EDT
Temp
°C
App
Temp
°C
Dew
Point
°C
Rel
Hum
%
Delta-T
°C
Wind Press
QNH
hPa
Press
MSL
hPa
Rain since
9am
mm
Dir  Spd
km/h
Gust
km/h
Spd
kts
Gust
kts
21/11:30pm 8.4 4.2 7.5 94 0.4 SW 19 22 10 12 1025.6 1025.6 0.2
21/11:00pm 9.2 4.9 7.8 91 0.7 SW 20 28 11 15 1025.7 1025.7 0.2
21/10:30pm 9.8 5.4 7.6 86 1.0 SW 20 28 11 15 1025.9 1025.9 0.2
21/10:00pm 10.0 5.2 7.4 84 1.2 SW 22 32 12 17 1025.8 1025.8 0.2
21/09:30pm 10.0 4.1 7.6 85 1.1 SW 28 37 15 20 1025.8 1025.8 0.2
21/09:00pm 10.3 6.4 8.6 89 0.8 SW 19 26 10 14 1025.7 1025.7 0.2
21/08:30pm 10.7 5.8 8.3 85 1.2 SW 24 33 13 18 1025.4 1025.4 0.2
21/08:00pm 10.9 5.5 8.1 83 1.4 SW 26 33 14 18 1025.5 1025.5 0.2
21/07:30pm 11.2 4.6 7.7 79 1.7 SW 32 44 17 24 1025.2 1025.2 0.2
21/07:00pm 11.8 5.3 8.3 79 1.7 SW 32 41 17 22 1025.3 1025.3 0.2
21/06:30pm 12.9 6.8 8.4 74 2.2 SW 30 41 16 22 1025.0 1025.0 0.2
21/06:00pm 13.0 6.7 9.1 77 2.0 SW 32 41 17 22 1024.8 1024.8 0.2
21/05:30pm 13.8 7.5 9.0 73 2.4 SW 32 44 17 24 1024.6 1024.6 0.2
21/05:00pm 15.0 8.8 9.4 69 2.9 WSW 32 41 17 22 1024.5 1024.5 0.2
21/04:30pm 15.5 10.1 9.4 67 3.1 WSW 28 37 15 20 1024.6 1024.6 0.2
21/04:00pm 15.9 10.1 9.3 65 3.4 WSW 30 39 16 21 1024.7 1024.7 0.2
21/03:30pm 16.2 10.5 9.8 66 3.3 WSW 30 39 16 21 1024.9 1024.9 0.2
21/03:00pm 16.9 11.8 10.7 67 3.3 SW 28 39 15 21 1025.0 1025.0 0.2
21/02:30pm 16.7 11.1 10.1 65 3.5 WSW 30 39 16 21 1025.3 1025.3 0.2
21/02:00pm 16.7 11.5 10.1 65 3.5 WSW 28 37 15 20 1025.3 1025.3 0.2
21/01:30pm 16.2 10.1 9.8 66 3.3 WSW 32 41 17 22 1025.5 1025.5 0.2
21/01:00pm 15.5 10.6 10.1 70 2.8 SW 26 35 14 19 1025.5 1025.5 0.2
21/12:30pm 16.1 11.1 10.8 71 2.8 WSW 28 35 15 19 1025.8 1025.8 0.2
21/12:00pm 15.4 10.2 10.2 71 2.7 SW 28 39 15 21 1025.9 1025.9 0.2
21/11:30am 14.6 8.6 10.2 75 2.3 SW 32 39 17 21 1025.8 1025.8 0.2
21/11:00am 13.2 7.2 10.2 82 1.5 SW 32 41 17 22 1026.2 1026.2 0.2
21/10:30am 13.4 7.8 10.2 81 1.7 SW 30 41 16 22 1026.4 1026.4 0.2
21/10:00am 12.7 7.4 11.1 90 0.8 SW 30 35 16 19 1026.5 1026.5 0.2
21/09:30am 11.5 7.9 10.4 93 0.6 WSW 20 28 11 15 1026.7 1026.7 0.2
21/09:00am 11.2 7.5 10.1 93 0.6 SW 20 30 11 16 1026.5 1026.5 1.0
21/08:30am 11.0 6.1 9.8 92 0.6 SW 26 33 14 18 1026.2 1026.2 1.0
21/08:00am 10.3 5.3 9.5 95 0.4 SW 26 33 14 18 1026.1 1026.1 1.0
21/07:30am 9.9 5.9 9.1 95 0.4 SW 20 26 11 14 1026.0 1026.0 1.0
21/07:00am 9.6 5.2 9.0 96 0.3 WSW 22 35 12 19 1025.8 1025.8 1.0
21/06:30am 9.5 5.0 8.7 95 0.4 SW 22 32 12 17 1025.5 1025.5 1.0
21/06:00am 9.5 4.7 8.7 95 0.4 WSW 24 37 13 20 1025.2 1025.2 1.0
21/05:30am 9.1 5.0 8.5 96 0.3 SW 20 32 11 17 1024.9 1024.9 1.0
21/05:00am 9.3 4.4 8.5 95 0.4 SW 24 30 13 16 1024.6 1024.6 1.0
21/04:30am 9.1 4.1 8.2 94 0.4 WSW 24 35 13 19 1024.5 1024.5 1.0
21/04:00am 9.4 5.3 8.8 96 0.3 SW 20 30 11 16 1024.7 1024.7 1.0
21/03:30am 9.2 4.3 8.6 96 0.3 SW 24 30 13 16 1024.4 1024.4 1.0
21/03:00am 9.4 4.6 8.8 96 0.3 WSW 24 28 13 15 1024.7 1024.7 1.0
21/02:30am 9.4 5.5 8.6 95 0.4 WSW 19 24 10 13 1025.1 1025.1 1.0
21/02:00am 9.7 7.0 9.1 96 0.3 WNW 13 22 7 12 1025.4 1025.4 1.0
21/01:30am 9.8 7.9 8.9 94 0.4 WSW 9 15 5 8 1025.3 1025.3 0.8
21/01:00am 9.8 4.9 8.6 92 0.6 SW 24 30 13 16 1024.9 1024.9 0.8
21/12:30am 10.0 5.7 9.2 95 0.4 SW 22 32 12 17 1024.8 1024.8 0.8
21/12:00am 10.1 5.8 9.3 95 0.4 SW 22 28 12 15 1024.8 1024.8 0.8
 
Date/Time
EDT
Temp
°C
App
Temp
°C
Dew
Point
°C
Rel
Hum
%
Delta-T
°C
Wind Press
QNH
hPa
Press
MSL
hPa
Rain since
9am
mm
Dir  Spd
km/h
Gust
km/h
Spd
kts
Gust
kts
20/11:30pm 10.2 5.5 9.3 94 0.4 SW 24 32 13 17 1024.8 1024.8 0.8
20/11:00pm 10.1 4.9 9.0 93 0.5 WSW 26 39 14 21 1024.8 1024.8 0.8
20/10:30pm 10.1 6.3 9.2 94 0.4 WSW 19 26 10 14 1025.0 1025.0 0.8
20/10:00pm 10.0 5.6 9.1 94 0.4 SW 22 32 12 17 1024.8 1024.8 0.8
20/09:30pm 9.7 4.9 8.9 95 0.4 SW 24 32 13 17 1024.8 1024.8 0.8
20/09:00pm 10.0 4.8 8.9 93 0.5 SW 26 35 14 19 1024.9 1024.9 0.8
20/08:30pm 10.3 6.4 9.5 95 0.4 WSW 20 28 11 15 1024.7 1024.7 0.8
20/08:00pm 10.3 6.0 9.4 94 0.4 WSW 22 28 12 15 1024.5 1024.5 0.8
20/07:30pm 10.6 6.7 9.5 93 0.6 WSW 20 28 11 15 1024.0 1024.0 0.8
20/07:00pm 10.8 6.7 10.0 95 0.4 WSW 22 28 12 15 1023.7 1023.7 0.8
20/06:30pm 10.8 5.5 9.9 94 0.5 WSW 28 39 15 21 1023.4 1023.4 0.6
20/06:00pm 11.4 6.5 9.8 90 0.8 WSW 26 35 14 19 1023.0 1023.0 0.4
20/05:30pm 11.4 4.4 10.0 91 0.7 WSW 37 48 20 26 1022.6 1022.6 0.4
20/05:00pm 11.9 6.7 10.1 89 0.9 WSW 28 37 15 20 1022.3 1022.3 0.4
20/04:30pm 12.2 6.1 9.9 86 1.2 WSW 32 39 17 21 1021.9 1021.9 0.0
20/04:00pm 12.7 6.4 11.1 90 0.8 WSW 35 46 19 25 1021.6 1021.6 0.0
20/03:43pm 11.8 5.9 10.5 92 0.7 WSW 32 50 17 27 1021.5 1021.5 0.0
20/03:30pm 12.0 5.9 9.9 87 1.1 WSW 32 46 17 25 1021.4 1021.4 0.0
20/03:26pm 12.7 7.5 10.2 85 1.3 WSW 28 46 15 25 1021.3 1021.3 0.0
20/03:00pm 12.5 6.8 9.9 84 1.3 WSW 30 43 16 23 1021.4 1021.4 0.0
20/02:30pm 12.8 6.1 9.8 82 1.5 WSW 35 46 19 25 1021.1 1021.1 0.0
20/02:00pm 12.7 6.0 9.5 81 1.6 WSW 35 44 19 24 1020.8 1020.8 0.0
20/01:30pm 12.1 6.0 9.8 86 1.2 WSW 32 44 17 24 1020.6 1020.6 0.0
20/01:07pm 12.0 5.1 8.8 81 1.6 WSW 35 57 19 31 1020.4 1020.4 0.0
20/01:00pm 11.9 5.0 8.9 82 1.5 WSW 35 50 19 27 1020.4 1020.4 0.0
20/12:36pm 12.0 4.3 8.7 80 1.6 WSW 39 59 21 32 1020.1 1020.1 0.0
20/12:30pm 12.0 5.1 9.0 82 1.5 WSW 35 50 19 27 1019.9 1019.9 0.0
20/12:00pm 12.3 5.0 8.6 78 1.8 WSW 37 48 20 26 1019.7 1019.7 0.0
20/11:38am 12.2 4.8 8.5 78 1.8 WSW 37 56 20 30 1019.5 1019.5 0.0
20/11:30am 12.2 4.5 8.5 78 1.8 WSW 39 52 21 28 1019.5 1019.5 0.0
20/11:08am 12.3 4.8 8.0 75 2.1 WSW 37 56 20 30 1019.2 1019.2 0.0
20/11:00am 12.1 4.7 8.2 77 1.9 WSW 37 52 20 28 1019.3 1019.3 0.0
20/10:30am 12.2 5.6 7.9 75 2.1 WSW 32 56 17 30 1018.9 1018.9 0.0
20/10:00am 11.7 5.2 8.2 79 1.7 WSW 32 43 17 23 1018.6 1018.6 0.0
20/09:30am 11.5 4.9 7.8 78 1.8 WSW 32 41 17 22 1018.2 1018.2 0.0
20/09:17am 11.4 5.5 7.7 78 1.8 WSW 28 50 15 27 1018.1 1018.1 0.0
20/09:00am 11.2 5.0 7.9 80 1.6 WSW 30 41 16 22 1017.9 1017.9 3.8

Other formats

Comma delimited format used in spreadsheet applications
http://www.bom.gov.au/fwo/IDT60801/IDT60801.94953.axf

JavaScript Object Notation format (JSON) in row-major order
http://www.bom.gov.au/fwo/IDT60801/IDT60801.94953.json

Data quality

Most of these data are generated automatically and are frequently updated. Quality checks on data are not normally performed. It is possible for incorrect values to appear. Refer to information at About Latest Weather Observations and please check the disclaimer before using these data.